Tropical Cyclones
[Index]
Main Index Home Page Stock Weather Photos Extreme Storms Discussion Storm News and Storm Chasing Reports Tropical Cyclones / Hurricanes / Typhoons Weather Data and Links Wild Fires / Bushfires Weather Observation Techniques Weather Picture Catalogue Tornado Pictures and Reports Stock Video Footage and DVDs for sale
Season 1979-1980 Tropical Cyclone SINA Track Map
Season 1979-1980 Summaries: [BoM-AU] [JTWC-AU] [JTWC-SIO] [JTWC-SPAC] [JTWC-SH]
<<- Previous TC | JTWC 1979-1980 Season | Next TC ->>

click for intensity scale information  Lat/long Grid: Show Hide

 Date Labels: Show Hide

Joint Typhoon Warning Centre Cyclone Data

Name: SINA

10 Mar 1980 00:00 UTC to 16 Mar 1980 12:00 UTC

    date/time    lat    long     hPa   cat  kts
1980-03-10 00   13.5   158.8                  30          
1980-03-10 06   14.3   159.2                  30          
1980-03-10 12   15.0   159.5                  30          
1980-03-10 18   15.5   159.8                  30          
1980-03-11 00   16.0   160.0                  30          
1980-03-11 06   16.6   160.1                  35          
1980-03-11 12   17.2   160.2                  35          
1980-03-11 18   17.8   160.3            1     40          
1980-03-12 00   18.5   160.4            1     45          
1980-03-12 06   19.1   160.5            1     45          
1980-03-12 12   20.0   161.2            1     50          
1980-03-12 18   21.4   162.6            2     55          
1980-03-13 00   22.8   164.2            2     65          
1980-03-13 06   24.1   166.0            2     70          
1980-03-13 12   25.5   167.5            2     70          
1980-03-13 18   27.0   168.5            2     60          
1980-03-14 00   28.5   169.5            1     50          
1980-03-14 06   30.0   170.5            1     50          
1980-03-14 12   31.5   171.5            1     45          
1980-03-14 18   33.3   172.6            1     45          
1980-03-15 00   35.5   174.0            1     40          
1980-03-15 06   37.7   177.3            1     45          
1980-03-15 12   40.0   179.0W           1     50          
1980-03-15 18   42.0   176.7W           1     50          
1980-03-16 00   44.0   175.0W           1     50          
1980-03-16 06   46.7   173.8W           1     50          
1980-03-16 12   50.0   173.0W           1     45          
Winds are 1-min average.

Tropical cyclone tracks developed by Michael Bath using data from the Joint Typhoon Warning Centre Best Tracks and Google Maps.


[Australian Severe Weather index] [Copyright Notice] [Email Contacts] [Search This Site] [Privacy Policy]
Document: tropical_cyclone_sina.htm Updated: 18 September 2016